Time;durP1;ratioP1;P1;durP2;ratioP2;P2;SDS_P1;SDS_P2;PMS_P1;PMS_P2;Temp;Humidity;BMP_temperature;BMP_pressure;BME280_temperature;BME280_humidity;BME280_pressure;Samples;Min_cycle;Max_cycle;Signal;HPM_P1;HPM_P2
2022/03/05 00:00:45;;;;;;;17.27;9.20;;;;;;;;;;5053078;28;20409;-73
2022/03/05 00:03:11;;;;;;;18.50;10.07;;;;;;;;;;5052832;28;20881;-74
2022/03/05 00:05:38;;;;;;;16.53;9.37;;;;;;;;;;5053086;28;20404;-71
2022/03/05 00:08:04;;;;;;;20.47;9.70;;;;;;;;;;5052956;28;20416;-72
2022/03/05 00:10:30;;;;;;;19.97;9.97;;;;;;;;;;5051751;28;20471;-72
2022/03/05 00:12:56;;;;;;;16.67;10.03;;;;;;;;;;5052995;28;20900;-72
2022/03/05 00:15:24;;;;;;;17.90;9.63;;;;;;;;;;5053058;28;20932;-72
2022/03/05 00:17:50;;;;;;;14.23;8.80;;;;;;;;;;5052940;28;20494;-72
2022/03/05 00:20:16;;;;;;;19.07;10.30;;;;;;;;;;5052901;28;20408;-73
2022/03/05 00:22:43;;;;;;;18.60;10.20;;;;;;;;;;5052790;28;20478;-73
2022/03/05 00:25:10;;;;;;;19.20;9.80;;;;;;;;;;5052816;28;20415;-72
2022/03/05 00:27:37;;;;;;;16.00;9.40;;;;;;;;;;5052772;28;20438;-70
2022/03/05 00:30:03;;;;;;;21.10;9.37;;;;;;;;;;5052836;28;20774;-73
2022/03/05 00:32:29;;;;;;;15.47;9.03;;;;;;;;;;5052800;28;20412;-71
2022/03/05 00:34:55;;;;;;;17.97;9.50;;;;;;;;;;5052880;28;20402;-72
2022/03/05 00:37:21;;;;;;;15.67;9.67;;;;;;;;;;5052877;28;20398;-71
2022/03/05 00:39:47;;;;;;;23.03;10.83;;;;;;;;;;5052740;28;20404;-70
2022/03/05 00:42:13;;;;;;;16.83;9.67;;;;;;;;;;5052594;28;20484;-70
2022/03/05 00:44:40;;;;;;;15.43;9.83;;;;;;;;;;5054391;28;20773;-66
2022/03/05 00:47:06;;;;;;;14.47;9.20;;;;;;;;;;5056401;28;20765;-72
2022/03/05 00:49:32;;;;;;;15.73;9.57;;;;;;;;;;5056430;28;20409;-72
2022/03/05 00:51:58;;;;;;;16.40;9.57;;;;;;;;;;5056538;28;20546;-73
2022/03/05 00:54:24;;;;;;;16.87;9.70;;;;;;;;;;5056404;28;20403;-70
2022/03/05 00:56:50;;;;;;;18.90;9.47;;;;;;;;;;5056350;28;20874;-61
2022/03/05 00:59:16;;;;;;;19.83;10.20;;;;;;;;;;5056276;28;20411;-63
2022/03/05 01:01:42;;;;;;;16.37;9.97;;;;;;;;;;5055871;28;20482;-61
2022/03/05 01:04:08;;;;;;;18.50;10.17;;;;;;;;;;5056257;28;20437;-63
2022/03/05 01:06:35;;;;;;;14.77;8.90;;;;;;;;;;5056130;28;20411;-59
2022/03/05 01:09:01;;;;;;;14.60;9.33;;;;;;;;;;5055962;28;20403;-61
2022/03/05 01:11:27;;;;;;;18.23;10.00;;;;;;;;;;5056008;28;20423;-63
2022/03/05 01:13:53;;;;;;;15.30;8.93;;;;;;;;;;5056125;28;20412;-60
2022/03/05 01:16:19;;;;;;;14.53;9.70;;;;;;;;;;5055955;28;20474;-60
2022/03/05 01:18:46;;;;;;;16.63;10.20;;;;;;;;;;5055881;28;20409;-60
2022/03/05 01:21:12;;;;;;;15.27;10.07;;;;;;;;;;5055912;28;20514;-61
2022/03/05 01:23:38;;;;;;;17.43;9.67;;;;;;;;;;5054502;28;21096;-60
2022/03/05 01:26:04;;;;;;;15.80;9.90;;;;;;;;;;5055585;28;20435;-60
2022/03/05 01:28:30;;;;;;;18.13;9.90;;;;;;;;;;5055793;28;20453;-60
2022/03/05 01:30:56;;;;;;;16.17;9.53;;;;;;;;;;5054355;28;20434;-61
2022/03/05 01:33:22;;;;;;;14.53;8.77;;;;;;;;;;5055673;28;20494;-60
2022/03/05 01:35:48;;;;;;;15.93;9.07;;;;;;;;;;5055629;28;20425;-60
2022/03/05 01:38:15;;;;;;;14.93;9.93;;;;;;;;;;5055497;28;20407;-60
2022/03/05 01:40:42;;;;;;;16.70;8.47;;;;;;;;;;5055425;28;20973;-60
2022/03/05 01:43:08;;;;;;;15.50;9.30;;;;;;;;;;5054166;28;20505;-60
2022/03/05 01:45:34;;;;;;;14.87;9.30;;;;;;;;;;5055255;28;20504;-60
2022/03/05 01:48:00;;;;;;;16.33;9.07;;;;;;;;;;5055340;28;20433;-60
2022/03/05 01:50:26;;;;;;;14.47;9.30;;;;;;;;;;5055344;28;20459;-68
2022/03/05 01:52:53;;;;;;;16.03;9.60;;;;;;;;;;5055339;28;20427;-69
2022/03/05 01:55:19;;;;;;;16.73;9.20;;;;;;;;;;5054776;28;20431;-71
2022/03/05 01:57:45;;;;;;;15.70;8.80;;;;;;;;;;5055153;28;20421;-68
2022/03/05 02:00:12;;;;;;;18.57;9.00;;;;;;;;;;5055054;28;20484;-72
2022/03/05 02:02:39;;;;;;;16.10;8.60;;;;;;;;;;5054190;28;20483;-67
2022/03/05 02:05:05;;;;;;;17.17;9.17;;;;;;;;;;5054930;28;20407;-70
2022/03/05 02:07:32;;;;;;;13.30;8.73;;;;;;;;;;5054949;28;20951;-71
2022/03/05 02:09:58;;;;;;;16.30;7.87;;;;;;;;;;5053572;28;20409;-69
2022/03/05 02:12:31;;;;;;;12.20;7.80;;;;;;;;;;5055009;28;20460;-73
2022/03/05 02:14:58;;;;;;;18.37;9.60;;;;;;;;;;5054886;28;20402;-64
2022/03/05 02:17:24;;;;;;;16.17;10.17;;;;;;;;;;5054793;28;20746;-66
2022/03/05 02:19:50;;;;;;;13.40;8.90;;;;;;;;;;5054762;28;20408;-69
2022/03/05 02:22:16;;;;;;;17.70;9.63;;;;;;;;;;5054631;28;20480;-71
2022/03/05 02:24:42;;;;;;;14.23;8.37;;;;;;;;;;5054553;28;20462;-68
2022/03/05 02:27:10;;;;;;;12.03;7.67;;;;;;;;;;5054572;28;20919;-71
2022/03/05 02:29:36;;;;;;;14.90;8.63;;;;;;;;;;5054604;28;20414;-70
2022/03/05 02:32:03;;;;;;;12.67;8.07;;;;;;;;;;5054600;28;20459;-71
2022/03/05 02:34:29;;;;;;;17.33;9.63;;;;;;;;;;5054495;28;20510;-72
2022/03/05 02:36:55;;;;;;;12.57;7.77;;;;;;;;;;5053225;28;20757;-60
2022/03/05 02:39:24;;;;;;;14.50;9.10;;;;;;;;;;5054395;28;20450;-61
2022/03/05 02:41:50;;;;;;;12.53;7.50;;;;;;;;;;5054246;28;20557;-61
2022/03/05 02:44:16;;;;;;;14.10;8.57;;;;;;;;;;5052869;28;20457;-63
2022/03/05 02:46:42;;;;;;;15.57;8.57;;;;;;;;;;5053975;28;20981;-73
2022/03/05 02:49:08;;;;;;;14.47;8.37;;;;;;;;;;5054105;28;20453;-61
2022/03/05 02:51:35;;;;;;;14.20;8.30;;;;;;;;;;5054108;28;20446;-60
2022/03/05 02:54:01;;;;;;;14.33;8.77;;;;;;;;;;5054069;28;20402;-60
2022/03/05 02:56:27;;;;;;;12.70;8.10;;;;;;;;;;5053925;28;20434;-61
2022/03/05 02:58:54;;;;;;;16.63;8.10;;;;;;;;;;5052634;28;20407;-61
2022/03/05 03:01:20;;;;;;;16.10;8.53;;;;;;;;;;5053750;28;20460;-61
2022/03/05 03:03:46;;;;;;;13.93;8.10;;;;;;;;;;5053750;28;20470;-61
2022/03/05 03:06:12;;;;;;;13.07;7.63;;;;;;;;;;5053447;28;20431;-61
2022/03/05 03:08:38;;;;;;;14.90;8.53;;;;;;;;;;5053469;28;20411;-60
2022/03/05 03:11:04;;;;;;;14.77;8.70;;;;;;;;;;5053775;28;20492;-61
2022/03/05 03:13:30;;;;;;;15.60;7.73;;;;;;;;;;5053723;28;20465;-61
2022/03/05 03:15:56;;;;;;;16.53;9.07;;;;;;;;;;5053622;28;20405;-63
2022/03/05 03:18:22;;;;;;;16.53;8.77;;;;;;;;;;5053699;28;20425;-61
2022/03/05 03:20:48;;;;;;;15.63;8.70;;;;;;;;;;5053608;28;20403;-61
2022/03/05 03:23:14;;;;;;;16.83;8.33;;;;;;;;;;5053438;28;20482;-60
2022/03/05 03:25:40;;;;;;;16.13;8.50;;;;;;;;;;5053367;28;20466;-61
2022/03/05 03:28:06;;;;;;;14.73;8.80;;;;;;;;;;5053405;28;20446;-65
2022/03/05 03:30:32;;;;;;;14.53;8.90;;;;;;;;;;5053466;28;20453;-61
2022/03/05 03:32:58;;;;;;;18.90;8.37;;;;;;;;;;5053409;28;20397;-61
2022/03/05 03:35:25;;;;;;;18.27;8.60;;;;;;;;;;5053331;28;20407;-60
2022/03/05 03:37:51;;;;;;;15.73;8.10;;;;;;;;;;5053248;28;20457;-61
2022/03/05 03:40:18;;;;;;;15.80;9.27;;;;;;;;;;5052037;28;20419;-67
2022/03/05 03:42:45;;;;;;;16.00;8.40;;;;;;;;;;5053248;28;20564;-66
2022/03/05 03:45:12;;;;;;;16.53;8.70;;;;;;;;;;5053205;28;20465;-68
2022/03/05 03:47:39;;;;;;;17.93;7.70;;;;;;;;;;5053043;28;20472;-68
2022/03/05 03:50:05;;;;;;;14.97;8.53;;;;;;;;;;5053190;28;20407;-71
2022/03/05 03:52:32;;;;;;;12.33;7.60;;;;;;;;;;5053020;28;20407;-70
2022/03/05 03:54:58;;;;;;;15.77;8.60;;;;;;;;;;5053101;28;20431;-70
2022/03/05 03:57:24;;;;;;;16.47;7.90;;;;;;;;;;5052950;28;20408;-71
2022/03/05 03:59:51;;;;;;;14.60;8.23;;;;;;;;;;5053074;28;20586;-71
2022/03/05 04:02:19;;;;;;;18.30;8.30;;;;;;;;;;5052756;28;20468;-71
2022/03/05 04:04:45;;;;;;;14.23;8.60;;;;;;;;;;5052946;28;20416;-68
2022/03/05 04:09:55;;;;;;;13.40;7.90;;;;;;;;;;5053014;28;20396;-61
2022/03/05 04:12:21;;;;;;;12.57;7.90;;;;;;;;;;5052970;28;20430;-61
2022/03/05 04:14:48;;;;;;;16.50;8.70;;;;;;;;;;5051558;28;20414;-62
2022/03/05 04:17:14;;;;;;;15.53;8.03;;;;;;;;;;5052761;28;20890;-61
2022/03/05 04:19:40;;;;;;;12.53;7.83;;;;;;;;;;5055082;28;20419;-61
2022/03/05 04:22:06;;;;;;;15.80;9.33;;;;;;;;;;5056799;28;20529;-61
2022/03/05 04:24:32;;;;;;;13.63;8.10;;;;;;;;;;5056762;28;20405;-61
2022/03/05 04:26:58;;;;;;;14.63;9.13;;;;;;;;;;5056797;28;20972;-60
2022/03/05 04:29:24;;;;;;;15.03;8.33;;;;;;;;;;5056708;28;20510;-61
2022/03/05 04:31:50;;;;;;;19.30;8.50;;;;;;;;;;5056797;28;20405;-61
2022/03/05 04:34:16;;;;;;;15.67;8.53;;;;;;;;;;5056692;28;20421;-61
2022/03/05 04:36:42;;;;;;;13.03;7.80;;;;;;;;;;5056652;28;21043;-72
2022/03/05 04:39:08;;;;;;;17.20;8.33;;;;;;;;;;5056613;28;20482;-72
2022/03/05 04:41:34;;;;;;;13.13;7.70;;;;;;;;;;5056545;28;20468;-71
2022/03/05 04:44:00;;;;;;;14.77;8.07;;;;;;;;;;5056625;28;20412;-72
2022/03/05 04:46:26;;;;;;;13.00;7.47;;;;;;;;;;5056404;28;20454;-67
2022/03/05 04:48:53;;;;;;;14.50;8.23;;;;;;;;;;5056409;28;20422;-73
2022/03/05 04:51:19;;;;;;;14.67;8.90;;;;;;;;;;5056361;28;20892;-73
2022/03/05 04:53:45;;;;;;;14.10;7.63;;;;;;;;;;5056497;28;20402;-73
2022/03/05 04:56:11;;;;;;;13.40;7.60;;;;;;;;;;5056029;28;20435;-72
2022/03/05 04:58:37;;;;;;;12.87;8.50;;;;;;;;;;5056205;28;20454;-72
2022/03/05 05:01:03;;;;;;;15.10;7.90;;;;;;;;;;5056138;28;20495;-72
2022/03/05 05:03:30;;;;;;;12.43;7.40;;;;;;;;;;5056245;28;20536;-70
2022/03/05 05:05:56;;;;;;;17.63;9.33;;;;;;;;;;5056069;28;20896;-71
2022/03/05 05:08:22;;;;;;;16.40;7.97;;;;;;;;;;5056142;28;20823;-72
2022/03/05 05:10:48;;;;;;;10.73;7.07;;;;;;;;;;5054918;28;20406;-72
2022/03/05 05:13:14;;;;;;;13.90;8.20;;;;;;;;;;5054840;28;20414;-72
2022/03/05 05:15:40;;;;;;;13.00;7.40;;;;;;;;;;5055991;28;20404;-72
2022/03/05 05:18:06;;;;;;;13.40;7.73;;;;;;;;;;5055985;28;20406;-72
2022/03/05 05:20:32;;;;;;;14.83;8.40;;;;;;;;;;5054581;28;20414;-72
2022/03/05 05:22:58;;;;;;;17.13;8.50;;;;;;;;;;5055744;28;20513;-62
2022/03/05 05:25:24;;;;;;;11.77;7.63;;;;;;;;;;5055615;28;20461;-60
2022/03/05 05:27:50;;;;;;;23.20;9.10;;;;;;;;;;5055846;28;20423;-65
2022/03/05 05:30:16;;;;;;;16.27;8.10;;;;;;;;;;5053793;28;20821;-61
2022/03/05 05:32:42;;;;;;;13.93;7.90;;;;;;;;;;5055621;28;20490;-61
2022/03/05 05:35:09;;;;;;;14.73;8.23;;;;;;;;;;5055638;28;20451;-60
2022/03/05 05:37:35;;;;;;;13.17;8.60;;;;;;;;;;5055587;28;20890;-61
2022/03/05 05:40:01;;;;;;;12.67;7.70;;;;;;;;;;5055425;28;20407;-63
2022/03/05 05:42:28;;;;;;;14.90;8.30;;;;;;;;;;5055381;28;20478;-61
2022/03/05 05:44:54;;;;;;;16.53;7.63;;;;;;;;;;5055327;28;20800;-61
2022/03/05 05:47:20;;;;;;;14.43;8.03;;;;;;;;;;5055462;28;20421;-62
2022/03/05 05:49:46;;;;;;;13.17;7.97;;;;;;;;;;5055399;28;20438;-60
2022/03/05 05:52:12;;;;;;;17.03;7.83;;;;;;;;;;5055220;28;20418;-62
2022/03/05 05:54:38;;;;;;;13.33;7.80;;;;;;;;;;5055072;28;20926;-66
2022/03/05 05:57:04;;;;;;;14.90;7.97;;;;;;;;;;5055173;28;20498;-64
2022/03/05 05:59:30;;;;;;;17.33;8.33;;;;;;;;;;5055035;28;20831;-61
2022/03/05 06:01:58;;;;;;;15.00;7.07;;;;;;;;;;5054876;28;20474;-60
2022/03/05 06:04:24;;;;;;;14.53;8.00;;;;;;;;;;5055022;28;20492;-60
2022/03/05 06:06:50;;;;;;;16.60;8.10;;;;;;;;;;5054885;28;20442;-60
2022/03/05 06:09:16;;;;;;;18.10;7.90;;;;;;;;;;5054973;28;20928;-60
2022/03/05 06:11:42;;;;;;;11.07;7.50;;;;;;;;;;5054839;28;20413;-61
2022/03/05 06:14:10;;;;;;;13.40;6.83;;;;;;;;;;5054849;28;20424;-61
2022/03/05 06:16:36;;;;;;;15.07;7.90;;;;;;;;;;5054878;28;20410;-62
2022/03/05 06:19:02;;;;;;;12.17;7.50;;;;;;;;;;5054850;28;20468;-61
2022/03/05 06:21:28;;;;;;;10.80;6.93;;;;;;;;;;5054752;28;20967;-60
2022/03/05 06:23:54;;;;;;;13.63;8.20;;;;;;;;;;5054501;28;20478;-62
2022/03/05 06:26:20;;;;;;;14.67;8.27;;;;;;;;;;5054544;28;20423;-60
2022/03/05 06:28:46;;;;;;;13.17;7.93;;;;;;;;;;5054662;28;20914;-62
2022/03/05 06:31:12;;;;;;;14.00;8.00;;;;;;;;;;5054605;28;20476;-73
2022/03/05 06:33:38;;;;;;;13.90;8.50;;;;;;;;;;5054591;28;20816;-69
2022/03/05 06:36:04;;;;;;;13.77;8.53;;;;;;;;;;5054476;28;20414;-68
2022/03/05 06:38:30;;;;;;;11.90;7.93;;;;;;;;;;5054510;28;20458;-72
2022/03/05 06:40:56;;;;;;;12.57;8.30;;;;;;;;;;5054207;28;20513;-71
2022/03/05 06:43:22;;;;;;;15.10;8.43;;;;;;;;;;5053633;28;20609;-69
2022/03/05 06:45:48;;;;;;;13.90;8.60;;;;;;;;;;5054207;28;20892;-72
2022/03/05 06:48:14;;;;;;;19.53;9.63;;;;;;;;;;5054327;28;20414;-70
2022/03/05 06:50:40;;;;;;;19.00;8.87;;;;;;;;;;5054146;28;20426;-73
2022/03/05 06:53:07;;;;;;;14.83;8.50;;;;;;;;;;5054319;28;20501;-72
2022/03/05 06:55:33;;;;;;;15.17;9.03;;;;;;;;;;5052768;28;20433;-71
2022/03/05 06:57:59;;;;;;;15.13;9.60;;;;;;;;;;5054048;28;20420;-70
2022/03/05 07:00:25;;;;;;;16.97;9.57;;;;;;;;;;5054033;28;20445;-73
2022/03/05 07:02:51;;;;;;;15.17;9.83;;;;;;;;;;5052666;28;20537;-72
2022/03/05 07:05:17;;;;;;;21.50;10.40;;;;;;;;;;5053861;28;20894;-73
2022/03/05 07:07:43;;;;;;;16.40;9.70;;;;;;;;;;5053876;28;20893;-65
2022/03/05 07:10:09;;;;;;;13.93;8.90;;;;;;;;;;5053967;28;20408;-65
2022/03/05 07:12:35;;;;;;;18.80;9.33;;;;;;;;;;5053836;28;20810;-69
2022/03/05 07:15:01;;;;;;;13.13;8.87;;;;;;;;;;5053836;28;20579;-62
2022/03/05 07:17:28;;;;;;;15.10;8.50;;;;;;;;;;5053762;28;20408;-64
2022/03/05 07:19:57;;;;;;;16.97;8.87;;;;;;;;;;5053734;28;20437;-62
2022/03/05 07:22:23;;;;;;;19.40;9.87;;;;;;;;;;5053554;28;20509;-72
2022/03/05 07:24:50;;;;;;;16.93;10.30;;;;;;;;;;5053498;28;20431;-65
2022/03/05 07:27:16;;;;;;;15.37;9.97;;;;;;;;;;5053655;28;20886;-64
2022/03/05 07:29:43;;;;;;;19.53;10.80;;;;;;;;;;5053593;28;20406;-65
2022/03/05 07:32:09;;;;;;;18.13;10.53;;;;;;;;;;5053667;28;20399;-70
2022/03/05 07:34:35;;;;;;;17.93;10.30;;;;;;;;;;5053656;28;20402;-69
2022/03/05 07:37:01;;;;;;;15.97;8.70;;;;;;;;;;5053419;28;20751;-63
2022/03/05 07:39:28;;;;;;;20.17;11.50;;;;;;;;;;5053389;28;20419;-67
2022/03/05 07:41:54;;;;;;;23.20;11.47;;;;;;;;;;5053319;28;20478;-67
2022/03/05 07:44:20;;;;;;;21.43;10.50;;;;;;;;;;5053371;28;20477;-64
2022/03/05 07:46:46;;;;;;;17.90;10.30;;;;;;;;;;5053297;28;20469;-63
2022/03/05 07:49:12;;;;;;;23.60;10.97;;;;;;;;;;5053267;28;20909;-66
2022/03/05 07:51:38;;;;;;;19.77;11.00;;;;;;;;;;5053368;28;20414;-63
2022/03/05 07:54:05;;;;;;;19.43;11.10;;;;;;;;;;5053039;28;20404;-67
2022/03/05 07:56:31;;;;;;;21.80;11.70;;;;;;;;;;5053184;28;20441;-66
2022/03/05 07:58:57;;;;;;;23.10;11.80;;;;;;;;;;5053224;28;20441;-65
2022/03/05 08:01:23;;;;;;;25.13;12.50;;;;;;;;;;5053004;28;20541;-70
2022/03/05 08:03:50;;;;;;;18.07;10.83;;;;;;;;;;5051934;28;20486;-74
2022/03/05 08:06:16;;;;;;;20.93;11.37;;;;;;;;;;5053046;28;20410;-70
2022/03/05 08:08:42;;;;;;;18.77;11.30;;;;;;;;;;5053272;28;20400;-62
2022/03/05 08:11:08;;;;;;;22.43;11.27;;;;;;;;;;5053163;28;20407;-60
2022/03/05 08:13:34;;;;;;;19.47;10.70;;;;;;;;;;5053008;28;20975;-64
2022/03/05 08:16:00;;;;;;;22.30;10.57;;;;;;;;;;5052820;28;20455;-63
2022/03/05 08:18:26;;;;;;;24.40;11.97;;;;;;;;;;5053042;28;20463;-63
2022/03/05 08:20:52;;;;;;;22.03;12.70;;;;;;;;;;5052939;28;20756;-66
2022/03/05 08:23:18;;;;;;;23.40;11.10;;;;;;;;;;5051641;28;20467;-69
2022/03/05 08:25:44;;;;;;;22.67;12.27;;;;;;;;;;5052682;28;21015;-66
2022/03/05 08:28:10;;;;;;;21.80;11.80;;;;;;;;;;5051769;28;20423;-69
2022/03/05 08:30:36;;;;;;;22.00;11.73;;;;;;;;;;5052854;28;20403;-67
2022/03/05 08:33:02;;;;;;;22.60;12.43;;;;;;;;;;5052926;28;20786;-64
2022/03/05 08:35:29;;;;;;;24.20;11.77;;;;;;;;;;5052832;28;20474;-65
2022/03/05 08:37:54;;;;;;;24.00;12.47;;;;;;;;;;5052824;28;20425;-66
2022/03/05 08:40:21;;;;;;;22.57;13.10;;;;;;;;;;5052804;28;20424;-65
2022/03/05 08:42:50;;;;;;;23.33;12.77;;;;;;;;;;5052669;28;20965;-68
2022/03/05 08:45:16;;;;;;;22.30;12.80;;;;;;;;;;5051311;28;20414;-64
2022/03/05 08:47:44;;;;;;;22.07;12.33;;;;;;;;;;5052775;28;20422;-62
2022/03/05 08:50:10;;;;;;;25.50;12.47;;;;;;;;;;5052624;28;20455;-63
2022/03/05 08:52:36;;;;;;;22.37;12.57;;;;;;;;;;5052743;28;20426;-61
2022/03/05 08:55:04;;;;;;;23.07;11.77;;;;;;;;;;5052582;28;20429;-66
2022/03/05 08:57:30;;;;;;;25.10;13.03;;;;;;;;;;5052503;28;20893;-65
2022/03/05 08:59:56;;;;;;;24.80;12.60;;;;;;;;;;5052646;28;20417;-65
2022/03/05 09:02:22;;;;;;;22.17;11.80;;;;;;;;;;5052155;28;20516;-65
2022/03/05 09:04:48;;;;;;;22.10;11.70;;;;;;;;;;5052701;28;20438;-65
2022/03/05 09:07:14;;;;;;;20.80;11.80;;;;;;;;;;5056319;28;20410;-68
2022/03/05 09:09:40;;;;;;;22.27;12.13;;;;;;;;;;5056270;28;20414;-63
2022/03/05 09:12:06;;;;;;;22.47;11.87;;;;;;;;;;5056197;28;20893;-60
2022/03/05 09:14:32;;;;;;;22.17;12.57;;;;;;;;;;5056019;28;20410;-63
2022/03/05 09:16:58;;;;;;;20.73;11.10;;;;;;;;;;5056115;28;20418;-62
2022/03/05 09:19:24;;;;;;;20.93;11.60;;;;;;;;;;5056278;28;20415;-61
2022/03/05 09:21:50;;;;;;;21.60;11.33;;;;;;;;;;5055911;28;20407;-72
2022/03/05 09:24:16;;;;;;;22.50;11.97;;;;;;;;;;5055907;28;20426;-72
2022/03/05 09:26:42;;;;;;;20.80;11.20;;;;;;;;;;5055713;28;20417;-68
2022/03/05 09:29:08;;;;;;;20.47;11.33;;;;;;;;;;5055852;28;20425;-72
2022/03/05 09:31:34;;;;;;;15.90;10.00;;;;;;;;;;5055836;28;20414;-72
2022/03/05 09:34:00;;;;;;;18.30;10.53;;;;;;;;;;5055742;28;20454;-71
2022/03/05 09:36:26;;;;;;;20.70;11.40;;;;;;;;;;5055779;28;20407;-72
2022/03/05 09:38:52;;;;;;;20.67;10.77;;;;;;;;;;5055617;28;20422;-73
2022/03/05 09:41:18;;;;;;;18.30;10.93;;;;;;;;;;5055609;28;20431;-72
2022/03/05 09:43:44;;;;;;;17.13;9.77;;;;;;;;;;5055590;28;20503;-73
2022/03/05 09:46:11;;;;;;;16.87;10.20;;;;;;;;;;5055363;28;20453;-73
2022/03/05 09:48:38;;;;;;;21.90;11.77;;;;;;;;;;5055560;28;20407;-74
2022/03/05 09:51:04;;;;;;;14.97;9.37;;;;;;;;;;5055397;28;20399;-73
2022/03/05 09:53:30;;;;;;;15.73;10.00;;;;;;;;;;5055476;28;20414;-73
2022/03/05 09:55:56;;;;;;;17.80;10.40;;;;;;;;;;5055485;28;20419;-72
2022/03/05 09:58:23;;;;;;;18.07;9.70;;;;;;;;;;5055261;28;20437;-71
2022/03/05 10:00:49;;;;;;;19.17;10.13;;;;;;;;;;5055287;28;20954;-73
2022/03/05 10:03:15;;;;;;;15.03;10.00;;;;;;;;;;5055011;28;20582;-72
2022/03/05 10:05:42;;;;;;;14.87;9.40;;;;;;;;;;5055238;28;20415;-74
2022/03/05 10:08:08;;;;;;;17.30;9.27;;;;;;;;;;5055148;28;20425;-61
2022/03/05 10:10:53;;;;;;;16.03;9.80;;;;;;;;;;5055020;28;20421;-61
2022/03/05 10:13:25;;;;;;;19.00;9.83;;;;;;;;;;5055022;28;20751;-68
2022/03/05 10:15:52;;;;;;;14.53;9.23;;;;;;;;;;5054830;28;20434;-73
2022/03/05 10:18:25;;;;;;;18.77;9.03;;;;;;;;;;5054958;28;20905;-71
2022/03/05 10:20:52;;;;;;;12.53;8.10;;;;;;;;;;5054804;28;20940;-73
2022/03/05 10:23:19;;;;;;;15.87;9.37;;;;;;;;;;5054832;28;20897;-72
2022/03/05 10:25:53;;;;;;;14.43;8.10;;;;;;;;;;5054536;28;20776;-73
2022/03/05 10:28:20;;;;;;;13.77;8.33;;;;;;;;;;5054699;28;20415;-66
2022/03/05 10:30:46;;;;;;;14.70;8.67;;;;;;;;;;5054778;28;20465;-68
2022/03/05 10:33:31;;;;;;;16.80;10.73;;;;;;;;;;5054630;28;20803;-74
2022/03/05 10:35:58;;;;;;;13.77;8.43;;;;;;;;;;5054612;28;20403;-74
2022/03/05 10:38:25;;;;;;;19.37;10.87;;;;;;;;;;5054548;28;20402;-73
2022/03/05 10:40:54;;;;;;;14.23;8.60;;;;;;;;;;5054408;28;20925;-72
2022/03/05 10:43:21;;;;;;;17.03;9.27;;;;;;;;;;5054376;28;20469;-73
2022/03/05 10:45:48;;;;;;;13.43;8.50;;;;;;;;;;5053088;28;20414;-72
2022/03/05 10:48:41;;;;;;;16.73;9.47;;;;;;;;;;5054443;28;20409;-73
2022/03/05 10:51:19;;;;;;;13.90;8.80;;;;;;;;;;5054097;28;20767;-74
2022/03/05 10:53:47;;;;;;;13.13;8.33;;;;;;;;;;5054308;28;20476;-73
2022/03/05 10:56:25;;;;;;;12.97;8.23;;;;;;;;;;5054126;28;20935;-73
2022/03/05 10:59:10;;;;;;;17.37;9.70;;;;;;;;;;5054237;28;20441;-73
2022/03/05 11:01:38;;;;;;;17.50;10.10;;;;;;;;;;5053938;28;20441;-74
2022/03/05 11:04:04;;;;;;;17.70;9.20;;;;;;;;;;5054080;28;20463;-74
2022/03/05 11:06:32;;;;;;;18.47;8.37;;;;;;;;;;5052697;28;20428;-71
2022/03/05 11:08:58;;;;;;;12.50;7.40;;;;;;;;;;5054069;28;20492;-69
2022/03/05 11:11:25;;;;;;;15.57;9.13;;;;;;;;;;5053874;28;20886;-66
2022/03/05 11:13:51;;;;;;;13.20;7.50;;;;;;;;;;5054008;28;20409;-72
2022/03/05 11:16:18;;;;;;;15.23;8.47;;;;;;;;;;5053857;28;20862;-65
2022/03/05 11:18:44;;;;;;;11.43;7.03;;;;;;;;;;5053708;28;20410;-64
2022/03/05 11:21:10;;;;;;;14.67;8.47;;;;;;;;;;5053776;28;20458;-70
2022/03/05 11:23:37;;;;;;;16.57;8.50;;;;;;;;;;5053657;28;20466;-73
2022/03/05 11:26:04;;;;;;;13.60;8.70;;;;;;;;;;5053546;28;20431;-67
2022/03/05 11:28:35;;;;;;;14.33;7.77;;;;;;;;;;5053151;28;20445;-68
2022/03/05 11:31:05;;;;;;;15.77;9.00;;;;;;;;;;5053602;28;20501;-74
2022/03/05 11:33:38;;;;;;;17.90;9.27;;;;;;;;;;5053643;28;20516;-69
2022/03/05 11:36:04;;;;;;;9.93;6.70;;;;;;;;;;5053413;28;20444;-63
2022/03/05 11:38:32;;;;;;;12.27;7.50;;;;;;;;;;5052351;28;20426;-66
2022/03/05 11:40:58;;;;;;;11.23;7.03;;;;;;;;;;5053346;28;20425;-62
2022/03/05 11:43:25;;;;;;;11.37;8.10;;;;;;;;;;5053211;28;20485;-62
2022/03/05 11:45:51;;;;;;;14.20;8.40;;;;;;;;;;5053275;28;20407;-66
2022/03/05 11:48:23;;;;;;;13.87;7.40;;;;;;;;;;5053278;28;20421;-64
2022/03/05 11:50:50;;;;;;;14.07;7.13;;;;;;;;;;5053385;28;20530;-63
2022/03/05 11:53:17;;;;;;;13.20;7.63;;;;;;;;;;5052109;28;20450;-61
2022/03/05 11:55:44;;;;;;;11.00;6.90;;;;;;;;;;5053140;28;20434;-69
2022/03/05 11:58:13;;;;;;;10.60;7.23;;;;;;;;;;5053221;28;20887;-61
2022/03/05 12:00:41;;;;;;;12.10;7.50;;;;;;;;;;5053141;28;20400;-61
2022/03/05 12:03:08;;;;;;;14.90;7.80;;;;;;;;;;5051682;28;20482;-69
2022/03/05 12:05:44;;;;;;;11.73;7.47;;;;;;;;;;5053153;28;20415;-61
2022/03/05 12:08:24;;;;;;;10.83;6.93;;;;;;;;;;5053240;28;20422;-68
2022/03/05 12:11:10;;;;;;;13.50;7.50;;;;;;;;;;5052098;28;20417;-72
2022/03/05 12:13:41;;;;;;;12.67;8.00;;;;;;;;;;5053191;28;20414;-73
2022/03/05 12:16:18;;;;;;;16.63;8.30;;;;;;;;;;5052889;28;20472;-67
2022/03/05 12:18:45;;;;;;;12.00;6.90;;;;;;;;;;5052977;28;20397;-74
2022/03/05 12:21:11;;;;;;;14.00;8.00;;;;;;;;;;5051725;28;20780;-70
2022/03/05 12:23:37;;;;;;;14.60;7.40;;;;;;;;;;5052898;28;20470;-67
2022/03/05 12:26:05;;;;;;;11.37;7.70;;;;;;;;;;5052857;28;20438;-73
2022/03/05 12:28:40;;;;;;;12.23;7.40;;;;;;;;;;5052877;28;20418;-73
2022/03/05 12:31:06;;;;;;;13.43;8.17;;;;;;;;;;5053007;28;20445;-75
2022/03/05 12:33:33;;;;;;;10.47;7.17;;;;;;;;;;5052958;28;20764;-75
2022/03/05 12:36:01;;;;;;;13.17;7.80;;;;;;;;;;5052749;28;20416;-76
2022/03/05 12:38:27;;;;;;;11.53;7.00;;;;;;;;;;5052786;28;20426;-74
2022/03/05 12:40:53;;;;;;;11.33;7.33;;;;;;;;;;5056533;28;20766;-73
2022/03/05 12:43:19;;;;;;;11.20;6.73;;;;;;;;;;5056802;28;20465;-74
2022/03/05 12:45:46;;;;;;;9.67;6.07;;;;;;;;;;5056655;28;20403;-72
2022/03/05 12:48:16;;;;;;;10.10;7.07;;;;;;;;;;5056702;28;20458;-68
2022/03/05 12:50:52;;;;;;;10.20;6.13;;;;;;;;;;5056632;28;20399;-74
2022/03/05 12:53:22;;;;;;;12.23;7.23;;;;;;;;;;5056770;28;20912;-75
2022/03/05 12:55:53;;;;;;;11.33;6.37;;;;;;;;;;5055336;28;20941;-74
2022/03/05 12:58:28;;;;;;;8.23;6.10;;;;;;;;;;5056683;28;20431;-73
2022/03/05 13:00:56;;;;;;;12.00;7.27;;;;;;;;;;5056489;28;20449;-73
2022/03/05 13:03:23;;;;;;;8.80;6.40;;;;;;;;;;5056214;28;20481;-70
2022/03/05 13:05:54;;;;;;;10.00;7.17;;;;;;;;;;5056427;28;20403;-71
2022/03/05 13:08:28;;;;;;;10.67;7.00;;;;;;;;;;5055204;28;20414;-61
2022/03/05 13:11:01;;;;;;;12.37;6.87;;;;;;;;;;5056324;28;20409;-64
2022/03/05 13:13:31;;;;;;;11.03;6.67;;;;;;;;;;5056131;28;20407;-71
2022/03/05 13:15:59;;;;;;;13.93;7.43;;;;;;;;;;5056064;28;20420;-62
2022/03/05 13:18:25;;;;;;;10.37;7.47;;;;;;;;;;5056279;28;20980;-69
2022/03/05 13:20:51;;;;;;;12.67;6.60;;;;;;;;;;5055092;28;20491;-66
2022/03/05 13:23:21;;;;;;;12.97;6.97;;;;;;;;;;5056127;28;20526;-71
2022/03/05 13:25:48;;;;;;;8.90;6.30;;;;;;;;;;5054791;28;20525;-70
2022/03/05 13:28:19;;;;;;;11.17;6.50;;;;;;;;;;5055957;28;20423;-72
2022/03/05 13:30:48;;;;;;;9.13;5.57;;;;;;;;;;5055772;28;20486;-71
2022/03/05 13:33:33;;;;;;;8.10;5.33;;;;;;;;;;5055868;28;20417;-73
2022/03/05 13:35:59;;;;;;;10.60;5.93;;;;;;;;;;5054411;28;20475;-69
2022/03/05 13:38:26;;;;;;;10.50;6.20;;;;;;;;;;5055833;28;20525;-73
2022/03/05 13:40:52;;;;;;;10.13;5.97;;;;;;;;;;5055723;28;20411;-70
2022/03/05 13:43:22;;;;;;;9.47;6.70;;;;;;;;;;5055668;28;20474;-70
2022/03/05 13:45:48;;;;;;;10.27;6.83;;;;;;;;;;5055388;28;20921;-72
2022/03/05 13:48:16;;;;;;;10.80;6.67;;;;;;;;;;5055571;28;20471;-77
2022/03/05 13:50:42;;;;;;;9.33;5.73;;;;;;;;;;5055101;28;20792;-77
2022/03/05 13:53:08;;;;;;;9.50;6.53;;;;;;;;;;5055433;28;20426;-74
2022/03/05 13:55:35;;;;;;;12.20;6.70;;;;;;;;;;5055274;28;20785;-70
2022/03/05 13:58:01;;;;;;;10.40;6.90;;;;;;;;;;5055379;28;20428;-62
2022/03/05 14:00:28;;;;;;;10.30;7.00;;;;;;;;;;5055448;28;20397;-74
2022/03/05 14:02:55;;;;;;;12.23;7.20;;;;;;;;;;5055163;28;20513;-75
2022/03/05 14:05:24;;;;;;;11.33;6.80;;;;;;;;;;5055137;28;20520;-71
2022/03/05 14:07:51;;;;;;;8.07;6.10;;;;;;;;;;5055298;28;20419;-73
2022/03/05 14:10:20;;;;;;;10.27;7.00;;;;;;;;;;5055302;28;20514;-78
2022/03/05 14:12:48;;;;;;;11.27;6.83;;;;;;;;;;5055085;28;20407;-75
2022/03/05 14:15:14;;;;;;;11.23;7.10;;;;;;;;;;5053832;28;20471;-74
2022/03/05 14:17:48;;;;;;;11.77;7.80;;;;;;;;;;5055091;28;20395;-74
2022/03/05 14:20:19;;;;;;;11.60;6.60;;;;;;;;;;5055058;28;20448;-73
2022/03/05 14:22:53;;;;;;;13.53;7.70;;;;;;;;;;5054839;28;20461;-75
2022/03/05 14:25:20;;;;;;;13.43;7.47;;;;;;;;;;5054629;28;20509;-77
2022/03/05 14:27:47;;;;;;;12.57;6.37;;;;;;;;;;5054888;28;20796;-74
2022/03/05 14:30:14;;;;;;;11.57;7.60;;;;;;;;;;5054851;28;20413;-72